Time;durP1;ratioP1;P1;durP2;ratioP2;P2;SDS_P1;SDS_P2;PMS_P1;PMS_P2;Temp;Humidity;BMP_temperature;BMP_pressure;BME280_temperature;BME280_humidity;BME280_pressure;Samples;Min_cycle;Max_cycle;Signal;HPM_P1;HPM_P2
2022/04/03 00:00:33;;;;;;;;;;;;;;;7.21;53.22;98070.84;4451314;32;35121;-82
2022/04/03 00:03:01;;;;;;;;;;;;;;;8.25;51.26;98071.50;4463016;32;34947;-82
2022/04/03 00:05:28;;;;;;;;;;;;;;;6.73;55.34;98072.09;4445846;32;33461;-82
2022/04/03 00:07:55;;;;;;;;;;;;;;;7.50;53.39;98072.78;4463259;32;34076;-83
2022/04/03 00:10:22;;;;;;;;;;;;;;;7.72;52.79;98073.78;4465862;32;33335;-81
2022/04/03 00:12:50;;;;;;;;;;;;;;;5.24;58.83;98087.22;4466400;32;34943;-82
2022/04/03 00:15:18;;;;;;;;;;;;;;;5.74;58.42;98089.72;4466605;32;33594;-83
2022/04/03 00:17:45;;;;;;;;;;;;;;;5.46;59.29;98090.16;4439692;32;34294;-80
2022/04/03 00:20:13;;;;;;;;;;;;;;;5.84;59.01;98083.00;4453048;32;34518;-82
2022/04/03 00:22:40;;;;;;;;;;;;;;;5.88;58.38;98091.62;4450753;32;34746;-83
2022/04/03 00:25:08;;;;;;;;;;;;;;;5.32;60.26;98090.78;4446068;32;34225;-83
2022/04/03 00:27:35;;;;;;;;;;;;;;;6.27;58.13;98097.31;4453328;32;32757;-83
2022/04/03 00:30:02;;;;;;;;;;;;;;;6.75;55.99;98091.03;4453787;32;34661;-83
2022/04/03 00:32:30;;;;;;;;;;;;;;;5.55;59.09;98101.44;4455036;32;33909;-83
2022/04/03 00:34:57;;;;;;;;;;;;;;;5.45;59.68;98096.97;4468386;32;34234;-82
2022/04/03 00:37:24;;;;;;;;;;;;;;;6.47;57.02;98101.84;4463098;32;35052;-83
2022/04/03 00:39:52;;;;;;;;;;;;;;;6.76;56.20;98103.03;4449747;32;34419;-82
2022/04/03 00:42:19;;;;;;;;;;;;;;;6.23;56.91;98100.72;4468560;32;34990;-83
2022/04/03 00:44:46;;;;;;;;;;;;;;;7.00;55.04;98104.13;4468397;32;33511;-83
2022/04/03 00:47:13;;;;;;;;;;;;;;;6.48;56.38;98112.19;4468310;32;34352;-82
2022/04/03 00:49:40;;;;;;;;;;;;;;;6.06;58.01;98112.47;4448708;32;34386;-82
2022/04/03 00:52:08;;;;;;;;;;;;;;;6.86;55.54;98110.84;4468651;32;34175;-82
2022/04/03 00:54:36;;;;;;;;;;;;;;;6.32;56.97;98103.37;4468713;32;33067;-82
2022/04/03 00:57:05;;;;;;;;;;;;;;;5.69;58.66;98119.66;4454554;32;33733;-81
2022/04/03 00:59:33;;;;;;;;;;;;;;;5.23;60.28;98126.63;4467612;32;35352;-81
2022/04/03 01:02:02;;;;;;;;;;;;;;;5.69;59.23;98119.66;4468472;32;34088;-82
2022/04/03 01:04:29;;;;;;;;;;;;;;;6.41;57.44;98125.81;4454580;32;34317;-82
2022/04/03 01:06:59;;;;;;;;;;;;;;;6.21;57.42;98128.16;4468154;32;35129;-82
2022/04/03 01:09:27;;;;;;;;;;;;;;;7.27;54.87;98124.16;4458686;32;34526;-81
2022/04/03 01:11:54;;;;;;;;;;;;;;;7.78;53.01;98128.88;4438871;32;33713;-82
2022/04/03 01:14:31;;;;;;;;;;;;;;;7.63;53.17;98125.31;4452529;32;33118;-82
2022/04/03 01:16:58;;;;;;;;;;;;;;;7.72;53.00;98133.97;4456432;32;35134;-82
2022/04/03 01:19:25;;;;;;;;;;;;;;;8.45;51.24;98140.50;4453988;32;35217;-82
2022/04/03 01:21:53;;;;;;;;;;;;;;;8.60;50.75;98131.94;4454392;32;34283;-82
2022/04/03 01:24:20;;;;;;;;;;;;;;;8.44;50.93;98133.59;4467701;32;33181;-82
2022/04/03 01:26:48;;;;;;;;;;;;;;;9.40;48.77;98138.19;4467294;32;33909;-82
2022/04/03 01:29:18;;;;;;;;;;;;;;;8.62;49.87;98138.84;4468033;32;35826;-83
2022/04/03 01:31:46;;;;;;;;;;;;;;;9.07;48.95;98137.25;4456811;32;34334;-83
2022/04/03 01:34:14;;;;;;;;;;;;;;;9.04;48.90;98142.41;4452642;32;33157;-82
2022/04/03 01:36:41;;;;;;;;;;;;;;;8.67;49.22;98141.44;4459083;32;34445;-82
2022/04/03 01:39:11;;;;;;;;;;;;;;;8.63;49.80;98148.31;4458720;32;34310;-83
2022/04/03 01:41:39;;;;;;;;;;;;;;;9.44;48.24;98137.31;4456031;32;34171;-83
2022/04/03 01:44:07;;;;;;;;;;;;;;;8.71;49.37;98151.81;4452788;32;33130;-82
2022/04/03 01:46:38;;;;;;;;;;;;;;;9.43;48.07;98151.09;4458107;32;34022;-82
2022/04/03 01:49:07;;;;;;;;;;;;;;;9.17;48.51;98154.53;4454135;32;35084;-81
2022/04/03 01:51:34;;;;;;;;;;;;;;;9.85;46.96;98144.19;4468046;32;33887;-82
2022/04/03 01:54:02;;;;;;;;;;;;;;;9.94;46.90;98151.97;4468045;32;34259;-81
2022/04/03 01:56:30;;;;;;;;;;;;;;;10.65;45.37;98152.72;4467458;32;34851;-81
2022/04/03 01:58:58;;;;;;;;;;;;;;;10.53;45.43;98160.50;4457855;32;34246;-82
2022/04/03 02:01:25;;;;;;;;;;;;;;;10.63;45.13;98165.66;4467942;32;34193;-82
2022/04/03 02:03:53;;;;;;;;;;;;;;;10.54;45.14;98163.09;4467565;32;32780;-82
2022/04/03 02:06:20;;;;;;;;;;;;;;;10.30;45.99;98168.34;4467810;32;34338;-82
2022/04/03 02:08:48;;;;;;;;;;;;;;;10.68;45.06;98166.53;4468026;32;34388;-82
2022/04/03 02:11:15;;;;;;;;;;;;;;;10.01;46.39;98168.38;4439222;32;33806;-82
2022/04/03 02:13:42;;;;;;;;;;;;;;;9.85;46.58;98172.69;4452372;32;33073;-82
2022/04/03 02:16:10;;;;;;;;;;;;;;;10.31;45.17;98165.75;4452411;32;34980;-82
2022/04/03 02:18:38;;;;;;;;;;;;;;;9.52;47.26;98178.72;4452569;32;34469;-82
2022/04/03 02:21:06;;;;;;;;;;;;;;;9.58;46.72;98184.75;4465795;32;34252;-82
2022/04/03 02:23:34;;;;;;;;;;;;;;;9.48;47.60;98178.72;4465911;32;33402;-82
2022/04/03 02:26:01;;;;;;;;;;;;;;;9.36;47.93;98170.94;4466543;32;34321;-82
2022/04/03 02:28:28;;;;;;;;;;;;;;;8.11;50.28;98181.59;4453280;32;35248;-81
2022/04/03 02:30:56;;;;;;;;;;;;;;;9.26;47.73;98185.56;4452268;32;34287;-82
2022/04/03 02:33:23;;;;;;;;;;;;;;;9.47;47.06;98183.88;4452384;32;33861;-82
2022/04/03 02:35:51;;;;;;;;;;;;;;;9.42;46.75;98190.78;4460315;32;34151;-82
2022/04/03 02:38:18;;;;;;;;;;;;;;;8.61;49.07;98187.94;4455233;32;33952;-83
2022/04/03 02:40:46;;;;;;;;;;;;;;;9.22;47.99;98194.19;4452175;32;34941;-82
2022/04/03 02:43:13;;;;;;;;;;;;;;;9.48;47.04;98199.41;4452167;32;33962;-83
2022/04/03 02:45:41;;;;;;;;;;;;;;;9.24;47.66;98195.06;4453069;32;33955;-83
2022/04/03 02:48:09;;;;;;;;;;;;;;;9.33;47.43;98195.94;4464096;32;34997;-82
2022/04/03 02:50:36;;;;;;;;;;;;;;;8.93;48.44;98209.59;4467678;32;33943;-82
2022/04/03 02:53:04;;;;;;;;;;;;;;;8.54;49.33;98207.69;4467526;32;33715;-83
2022/04/03 02:55:31;;;;;;;;;;;;;;;7.65;51.37;98217.37;4467032;32;34264;-83
2022/04/03 02:57:58;;;;;;;;;;;;;;;8.73;49.35;98214.69;4466557;32;34219;-83
2022/04/03 03:00:25;;;;;;;;;;;;;;;9.17;48.36;98210.56;4467454;32;34927;-82
2022/04/03 03:02:52;;;;;;;;;;;;;;;8.20;49.68;98217.78;4467582;32;33221;-82
2022/04/03 03:05:20;;;;;;;;;;;;;;;8.47;49.85;98221.44;4467433;32;34164;-81
2022/04/03 03:07:48;;;;;;;;;;;;;;;8.92;48.78;98225.13;4458748;32;35324;-82
2022/04/03 03:10:16;;;;;;;;;;;;;;;9.11;48.27;98229.50;4452117;32;34447;-82
2022/04/03 03:12:44;;;;;;;;;;;;;;;9.22;48.22;98232.13;4452054;32;34156;-82
2022/04/03 03:15:12;;;;;;;;;;;;;;;9.66;46.78;98237.41;4451793;32;34183;-82
2022/04/03 03:17:39;;;;;;;;;;;;;;;9.89;46.13;98245.19;4458727;32;34455;-81
2022/04/03 03:20:07;;;;;;;;;;;;;;;10.24;45.56;98237.41;4467346;32;34414;-81
2022/04/03 03:22:35;;;;;;;;;;;;;;;10.60;45.12;98238.22;4467319;32;34062;-82
2022/04/03 03:25:05;;;;;;;;;;;;;;;10.91;44.42;98245.91;4467318;32;35074;-81
2022/04/03 03:27:33;;;;;;;;;;;;;;;11.11;43.99;98254.50;4460682;32;33917;-82
2022/04/03 03:30:00;;;;;;;;;;;;;;;11.10;43.89;98251.91;4451459;32;33823;-82
2022/04/03 03:32:28;;;;;;;;;;;;;;;11.16;43.49;98252.75;4451890;32;34491;-82
2022/04/03 03:34:56;;;;;;;;;;;;;;;11.16;43.29;98257.94;4453885;32;33654;-82
2022/04/03 03:37:23;;;;;;;;;;;;;;;11.23;42.87;98260.50;4466708;32;33400;-82
2022/04/03 03:39:50;;;;;;;;;;;;;;;11.03;43.25;98261.47;4453065;32;33711;-83
2022/04/03 03:42:17;;;;;;;;;;;;;;;11.25;42.94;98266.53;4467262;32;34040;-83
2022/04/03 03:44:44;;;;;;;;;;;;;;;11.17;43.06;98259.69;4467010;32;33785;-83
2022/04/03 03:47:12;;;;;;;;;;;;;;;11.07;43.27;98264.91;4463216;32;33902;-83
2022/04/03 03:49:39;;;;;;;;;;;;;;;11.28;42.86;98275.19;4437534;32;34947;-82
2022/04/03 03:52:06;;;;;;;;;;;;;;;10.24;44.92;98278.84;4451296;32;34229;-82
2022/04/03 03:54:33;;;;;;;;;;;;;;;10.29;44.81;98276.28;4451419;32;34139;-83
2022/04/03 03:57:01;;;;;;;;;;;;;;;9.61;46.12;98279.66;4460959;32;34104;-82
2022/04/03 03:59:28;;;;;;;;;;;;;;;9.20;47.40;98294.16;4467010;32;34217;-82
2022/04/03 04:01:56;;;;;;;;;;;;;;;9.65;46.06;98292.59;4458214;32;33407;-82
2022/04/03 04:04:23;;;;;;;;;;;;;;;9.62;46.87;98302.06;4481307;32;34140;-81
2022/04/03 04:06:50;;;;;;;;;;;;;;;9.35;47.43;98302.84;4478938;32;34174;-82
2022/04/03 04:09:17;;;;;;;;;;;;;;;9.85;46.37;98310.78;4456728;32;34148;-81
2022/04/03 04:11:45;;;;;;;;;;;;;;;9.49;47.11;98311.53;4453272;32;33250;-82
2022/04/03 04:14:12;;;;;;;;;;;;;;;9.70;46.48;98318.50;4452939;32;34107;-82
2022/04/03 04:16:40;;;;;;;;;;;;;;;8.90;48.39;98314.69;4453143;32;33942;-82
2022/04/03 04:19:08;;;;;;;;;;;;;;;9.42;47.31;98320.97;4462235;32;34508;-81
2022/04/03 04:21:35;;;;;;;;;;;;;;;8.72;49.03;98321.50;4468555;32;32974;-82
2022/04/03 04:24:02;;;;;;;;;;;;;;;9.19;48.16;98322.63;4468468;32;34847;-84
2022/04/03 04:26:30;;;;;;;;;;;;;;;8.35;50.06;98334.97;4468653;32;34225;-83
2022/04/03 04:28:57;;;;;;;;;;;;;;;9.34;47.68;98333.03;4459089;32;33145;-82
2022/04/03 04:31:24;;;;;;;;;;;;;;;9.11;47.82;98338.09;4453421;32;33548;-82
2022/04/03 04:33:52;;;;;;;;;;;;;;;9.70;46.50;98347.84;4453103;32;34286;-82
2022/04/03 04:36:19;;;;;;;;;;;;;;;9.08;48.15;98357.91;4452917;32;35125;-81
2022/04/03 04:38:47;;;;;;;;;;;;;;;9.77;46.71;98355.59;4460011;32;34606;-83
2022/04/03 04:41:14;;;;;;;;;;;;;;;9.99;45.66;98362.56;4468649;32;33345;-82
2022/04/03 04:43:42;;;;;;;;;;;;;;;10.00;45.68;98361.72;4468549;32;35022;-82
2022/04/03 04:46:09;;;;;;;;;;;;;;;8.42;48.97;98368.63;4468775;32;34389;-82
2022/04/03 04:48:36;;;;;;;;;;;;;;;9.27;47.38;98377.81;4447473;32;34021;-82
2022/04/03 04:51:04;;;;;;;;;;;;;;;9.77;46.23;98378.91;4453098;32;33400;-81
2022/04/03 04:53:31;;;;;;;;;;;;;;;10.07;45.89;98383.28;4452754;32;35111;-81
2022/04/03 04:55:58;;;;;;;;;;;;;;;9.40;47.27;98386.53;4459497;32;35387;-81
2022/04/03 04:58:26;;;;;;;;;;;;;;;10.33;45.29;98385.97;4467726;32;34383;-81
2022/04/03 05:00:54;;;;;;;;;;;;;;;10.70;44.25;98390.31;4468479;32;33105;-82
2022/04/03 05:03:21;;;;;;;;;;;;;;;10.98;43.89;98386.81;4468435;32;34367;-81
2022/04/03 05:05:48;;;;;;;;;;;;;;;10.98;44.01;98392.00;4468332;32;34488;-81
2022/04/03 05:08:15;;;;;;;;;;;;;;;11.02;43.71;98401.50;4444129;32;34506;-82
2022/04/03 05:10:43;;;;;;;;;;;;;;;10.69;44.23;98404.12;4447147;32;33681;-81
2022/04/03 05:13:11;;;;;;;;;;;;;;;10.57;44.64;98405.84;4465755;32;34269;-83
2022/04/03 05:15:38;;;;;;;;;;;;;;;10.07;45.75;98410.06;4478030;32;34429;-81
2022/04/03 05:18:06;;;;;;;;;;;;;;;10.07;45.75;98410.06;4467738;32;34839;-82
2022/04/03 05:20:33;;;;;;;;;;;;;;;9.84;45.89;98411.72;4451402;32;34007;-82
2022/04/03 05:23:01;;;;;;;;;;;;;;;10.33;45.00;98417.06;4467888;32;33602;-82
2022/04/03 05:25:28;;;;;;;;;;;;;;;10.82;44.27;98427.47;4457071;32;33967;-82
2022/04/03 05:27:56;;;;;;;;;;;;;;;10.80;44.08;98429.22;4456106;32;34365;-82
2022/04/03 05:30:23;;;;;;;;;;;;;;;10.85;44.07;98433.50;4463162;32;33280;-82
2022/04/03 05:32:50;;;;;;;;;;;;;;;10.21;45.11;98436.00;4460921;32;34318;-81
2022/04/03 05:35:17;;;;;;;;;;;;;;;10.30;45.02;98438.63;4453281;32;34485;-82
2022/04/03 05:37:47;;;;;;;;;;;;;;;10.73;44.06;98438.72;4464194;32;35080;-82
2022/04/03 05:40:15;;;;;;;;;;;;;;;10.53;44.64;98436.09;4468284;32;33179;-82
2022/04/03 05:42:43;;;;;;;;;;;;;;;10.65;44.33;98443.88;4468189;32;34145;-82
2022/04/03 05:45:10;;;;;;;;;;;;;;;10.82;43.80;98445.63;4467568;32;34489;-83
2022/04/03 05:47:38;;;;;;;;;;;;;;;9.94;45.80;98450.59;4468085;32;34805;-82
2022/04/03 05:50:10;;;;;;;;;;;;;;;10.37;45.13;98452.47;4454412;32;33315;-83
2022/04/03 05:52:38;;;;;;;;;;;;;;;10.42;44.86;98454.22;4468073;32;35606;-82
2022/04/03 05:55:07;;;;;;;;;;;;;;;8.85;48.46;98464.59;4449753;32;34366;-82
2022/04/03 05:57:43;;;;;;;;;;;;;;;9.37;47.69;98464.13;4458003;32;33621;-82
2022/04/03 06:00:12;;;;;;;;;;;;;;;9.21;47.75;98466.59;4455913;32;33466;-81
2022/04/03 06:02:47;;;;;;;;;;;;;;;9.65;46.99;98471.16;4452326;32;35069;-82
2022/04/03 06:05:14;;;;;;;;;;;;;;;8.72;49.15;98476.56;4467585;32;35162;-82
2022/04/03 06:07:42;;;;;;;;;;;;;;;8.32;49.99;98477.84;4477768;32;35066;-82
2022/04/03 06:10:10;;;;;;;;;;;;;;;8.83;49.26;98483.53;4453673;32;32206;-81
2022/04/03 06:12:37;;;;;;;;;;;;;;;8.75;49.47;98484.34;4464790;32;35013;-81
2022/04/03 06:15:04;;;;;;;;;;;;;;;8.59;49.74;98487.59;4452205;32;34518;-82
2022/04/03 06:17:32;;;;;;;;;;;;;;;7.94;51.18;98492.87;4461849;32;34972;-81
2022/04/03 06:19:59;;;;;;;;;;;;;;;7.52;53.08;98494.06;4467740;32;34233;-80
2022/04/03 06:22:26;;;;;;;;;;;;;;;8.61;50.22;98498.84;4467419;32;33373;-80
2022/04/03 06:24:53;;;;;;;;;;;;;;;8.25;50.88;98494.09;4467766;32;34465;-80
2022/04/03 06:27:20;;;;;;;;;;;;;;;8.72;49.88;98502.41;4460121;32;35017;-80
2022/04/03 06:29:48;;;;;;;;;;;;;;;8.14;51.66;98509.47;4451308;32;33168;-80
2022/04/03 06:32:15;;;;;;;;;;;;;;;7.28;53.54;98518.66;4465995;32;33974;-81
2022/04/03 06:34:42;;;;;;;;;;;;;;;7.02;54.13;98527.69;4466958;32;34558;-80
2022/04/03 06:37:09;;;;;;;;;;;;;;;7.95;52.17;98515.25;4453747;32;34179;-80
2022/04/03 06:39:37;;;;;;;;;;;;;;;7.75;52.95;98539.09;4467813;32;33079;-81
2022/04/03 06:42:04;;;;;;;;;;;;;;;8.62;49.97;98528.13;4454665;32;33817;-82
2022/04/03 06:44:31;;;;;;;;;;;;;;;7.71;52.08;98532.16;4452127;32;35313;-81
2022/04/03 06:46:59;;;;;;;;;;;;;;;7.52;53.62;98540.47;4452072;32;34069;-81
2022/04/03 06:49:28;;;;;;;;;;;;;;;6.89;55.58;98543.75;4461668;32;33690;-81
2022/04/03 06:51:56;;;;;;;;;;;;;;;8.15;52.32;98544.78;4465251;32;33607;-81
2022/04/03 06:54:23;;;;;;;;;;;;;;;8.14;51.97;98548.19;4454992;32;34771;-81
2022/04/03 06:56:53;;;;;;;;;;;;;;;8.42;51.22;98546.00;4467527;32;33510;-82
2022/04/03 06:59:21;;;;;;;;;;;;;;;7.21;53.96;98550.31;4467593;32;34238;-81
2022/04/03 07:01:48;;;;;;;;;;;;;;;8.53;50.89;98550.44;4467418;32;35048;-80
2022/04/03 07:04:15;;;;;;;;;;;;;;;7.18;54.24;98552.84;4467358;32;34479;-81
2022/04/03 07:06:42;;;;;;;;;;;;;;;7.90;52.14;98560.81;4467132;32;34145;-82
2022/04/03 07:09:11;;;;;;;;;;;;;;;8.29;51.70;98561.28;4452995;32;33207;-81
2022/04/03 07:11:38;;;;;;;;;;;;;;;8.08;51.50;98561.06;4467331;32;34645;-82
2022/04/03 07:14:05;;;;;;;;;;;;;;;8.33;51.07;98567.37;4467201;32;35285;-80
2022/04/03 07:16:33;;;;;;;;;;;;;;;8.31;51.61;98578.53;4467434;32;34786;-81
2022/04/03 07:19:00;;;;;;;;;;;;;;;7.55;53.58;98581.81;4453143;32;32807;-82
2022/04/03 07:21:27;;;;;;;;;;;;;;;7.90;52.50;98584.03;4467196;32;33936;-82
2022/04/03 07:23:54;;;;;;;;;;;;;;;6.19;56.80;98593.09;4467325;32;33665;-81
2022/04/03 07:26:22;;;;;;;;;;;;;;;6.07;57.03;98598.84;4467338;32;34142;-81
2022/04/03 07:28:49;;;;;;;;;;;;;;;7.39;54.40;98597.87;4467069;32;33204;-82
2022/04/03 07:31:16;;;;;;;;;;;;;;;7.60;52.69;98612.81;4467085;32;34075;-82
2022/04/03 07:33:44;;;;;;;;;;;;;;;7.16;54.69;98619.00;4466991;32;34383;-82
2022/04/03 07:36:11;;;;;;;;;;;;;;;6.94;53.51;98616.88;4466813;32;34388;-81
2022/04/03 07:38:42;;;;;;;;;;;;;;;6.68;54.30;98624.97;4467074;32;33503;-82
2022/04/03 07:41:10;;;;;;;;;;;;;;;7.23;53.06;98625.97;4462925;32;34865;-81
2022/04/03 07:43:37;;;;;;;;;;;;;;;6.23;55.52;98628.34;4457995;32;34383;-82
2022/04/03 07:46:05;;;;;;;;;;;;;;;6.57;55.83;98636.78;4451137;32;34780;-82
2022/04/03 07:48:32;;;;;;;;;;;;;;;7.86;51.74;98636.44;4464354;32;33568;-82
2022/04/03 07:50:59;;;;;;;;;;;;;;;8.04;50.66;98639.31;4466255;32;34186;-82
2022/04/03 07:53:32;;;;;;;;;;;;;;;7.59;52.61;98642.91;4465925;32;35253;-82
2022/04/03 07:55:59;;;;;;;;;;;;;;;7.02;53.30;98651.37;4455861;32;34298;-82
2022/04/03 07:58:27;;;;;;;;;;;;;;;7.15;53.21;98658.47;4457710;32;33357;-83
2022/04/03 08:00:54;;;;;;;;;;;;;;;6.96;53.48;98659.84;4467044;32;33836;-81
2022/04/03 08:03:22;;;;;;;;;;;;;;;6.40;55.30;98669.88;4474303;32;33841;-81
2022/04/03 08:05:49;;;;;;;;;;;;;;;6.09;56.63;98673.50;4452618;32;33405;-82
2022/04/03 08:08:16;;;;;;;;;;;;;;;7.22;52.66;98665.50;4461758;32;32729;-82
2022/04/03 08:10:44;;;;;;;;;;;;;;;5.93;56.66;98680.00;4466007;32;34720;-84
2022/04/03 08:13:11;;;;;;;;;;;;;;;6.38;54.91;98676.72;4459985;32;35121;-81
2022/04/03 08:15:39;;;;;;;;;;;;;;;5.57;56.25;98672.25;4462440;32;34421;-82
2022/04/03 08:18:06;;;;;;;;;;;;;;;6.29;55.77;98685.13;4466480;32;33368;-81
2022/04/03 08:20:34;;;;;;;;;;;;;;;7.40;51.63;98679.56;4466397;32;33840;-81
2022/04/03 08:23:03;;;;;;;;;;;;;;;6.24;55.28;98694.44;4478891;32;34178;-83
2022/04/03 08:25:32;;;;;;;;;;;;;;;7.07;52.58;98698.72;4481934;32;34218;-83
2022/04/03 08:28:00;;;;;;;;;;;;;;;6.52;53.52;98702.78;4440707;32;34832;-82
2022/04/03 08:30:28;;;;;;;;;;;;;;;7.65;52.16;98696.31;4447989;32;33774;-81
2022/04/03 08:32:56;;;;;;;;;;;;;;;6.88;53.05;98694.06;4480593;32;34470;-82
2022/04/03 08:35:24;;;;;;;;;;;;;;;5.59;54.55;98710.00;4473928;32;33871;-82
2022/04/03 08:37:51;;;;;;;;;;;;;;;5.99;55.79;98717.88;4451154;32;32942;-82
2022/04/03 08:40:19;;;;;;;;;;;;;;;6.22;55.46;98713.25;4436719;32;33977;-83
2022/04/03 08:42:48;;;;;;;;;;;;;;;6.91;53.10;98725.03;4437613;32;35244;-83
2022/04/03 08:45:15;;;;;;;;;;;;;;;6.65;54.51;98722.78;4438913;32;34997;-82
2022/04/03 08:47:49;;;;;;;;;;;;;;;5.12;57.88;98725.06;4463724;32;33748;-82
2022/04/03 08:50:16;;;;;;;;;;;;;;;6.20;55.12;98722.66;4459042;32;34713;-84
2022/04/03 08:52:45;;;;;;;;;;;;;;;6.46;54.68;98725.81;4472470;32;35295;-83
2022/04/03 08:55:13;;;;;;;;;;;;;;;6.87;53.94;98723.25;4459592;32;34262;-83
2022/04/03 08:57:40;;;;;;;;;;;;;;;6.30;54.54;98725.47;4465094;32;33939;-84
2022/04/03 09:00:08;;;;;;;;;;;;;;;6.70;54.35;98731.47;4457619;32;34284;-82
2022/04/03 09:02:35;;;;;;;;;;;;;;;5.83;56.38;98729.44;4448807;32;34919;-83
2022/04/03 09:05:07;;;;;;;;;;;;;;;6.58;54.42;98728.63;4438888;32;33843;-82
2022/04/03 09:07:34;;;;;;;;;;;;;;;6.92;54.90;98734.50;4435542;32;34254;-88
2022/04/03 09:10:08;;;;;;;;;;;;;;;8.03;51.56;98725.31;4433826;32;32832;-82
2022/04/03 09:12:43;;;;;;;;;;;;;;;8.62;50.68;98727.94;4436963;32;35087;-82
2022/04/03 09:15:11;;;;;;;;;;;;;;;7.64;51.35;98721.25;4435489;32;35163;-82
2022/04/03 09:17:44;;;;;;;;;;;;;;;7.53;51.89;98733.09;4437155;32;33866;-82
2022/04/03 09:20:17;;;;;;;;;;;;;;;8.20;49.98;98736.78;4430246;32;34045;-83
2022/04/03 09:22:47;;;;;;;;;;;;;;;6.86;53.34;98744.66;4433069;32;33963;-81
2022/04/03 09:25:16;;;;;;;;;;;;;;;7.60;52.63;98745.25;4432621;32;33212;-80
2022/04/03 09:27:51;;;;;;;;;;;;;;;7.41;52.28;98738.88;4435440;32;32794;-84
2022/04/03 09:30:19;;;;;;;;;;;;;;;7.53;53.11;98745.97;4436587;32;34347;-83
2022/04/03 09:32:47;;;;;;;;;;;;;;;7.86;53.91;98752.59;4435836;32;34411;-85
2022/04/03 09:35:15;;;;;;;;;;;;;;;7.77;51.89;98748.16;4435139;32;33688;-84
2022/04/03 09:38:03;;;;;;;;;;;;;;;7.23;54.15;98760.03;4433337;32;33624;-86
2022/04/03 09:40:30;;;;;;;;;;;;;;;6.66;54.38;98764.88;4436407;32;33532;-82
2022/04/03 09:43:18;;;;;;;;;;;;;;;6.91;55.26;98768.84;4422325;32;34277;-87
2022/04/03 09:45:56;;;;;;;;;;;;;;;7.29;54.02;98762.75;4430582;32;34496;-90
2022/04/03 09:48:23;;;;;;;;;;;;;;;7.05;53.64;98768.28;4435647;32;33212;-82
2022/04/03 09:51:03;;;;;;;;;;;;;;;7.83;53.43;98768.88;4437045;32;34117;-83
2022/04/03 09:53:49;;;;;;;;;;;;;;;8.20;51.95;98770.34;4432267;32;34291;-82
2022/04/03 09:56:31;;;;;;;;;;;;;;;8.57;49.73;98776.13;4435772;32;34019;-82
2022/04/03 09:59:00;;;;;;;;;;;;;;;8.18;52.14;98786.66;4434229;32;33192;-81
2022/04/03 10:01:29;;;;;;;;;;;;;;;7.58;51.25;98788.22;4428895;32;33578;-83
2022/04/03 10:03:59;;;;;;;;;;;;;;;8.06;52.97;98784.75;4436116;32;34886;-82
2022/04/03 10:06:26;;;;;;;;;;;;;;;7.07;51.93;98794.94;4443373;32;34139;-83
2022/04/03 10:08:53;;;;;;;;;;;;;;;8.47;49.25;98788.00;4460734;32;34193;-85
2022/04/03 10:11:21;;;;;;;;;;;;;;;8.58;47.84;98785.59;4458283;32;35007;-82
2022/04/03 10:13:48;;;;;;;;;;;;;;;7.41;51.25;98799.91;4465775;32;34229;-82
2022/04/03 10:16:16;;;;;;;;;;;;;;;7.93;49.31;98780.25;4465496;32;34411;-82
2022/04/03 10:18:44;;;;;;;;;;;;;;;7.64;51.68;98792.62;4456827;32;32988;-80
2022/04/03 10:21:31;;;;;;;;;;;;;;;7.83;49.82;98796.41;4458235;32;34320;-82
2022/04/03 10:24:04;;;;;;;;;;;;;;;8.48;48.95;98786.28;4455940;32;34792;-81
2022/04/03 10:26:32;;;;;;;;;;;;;;;7.97;51.21;98794.94;4460752;32;34183;-83
2022/04/03 10:29:00;;;;;;;;;;;;;;;7.49;50.94;98798.34;4445711;32;33420;-80
2022/04/03 10:31:27;;;;;;;;;;;;;;;8.30;51.24;98807.53;4439492;32;34180;-81
2022/04/03 10:33:54;;;;;;;;;;;;;;;9.20;46.49;98808.81;4459000;32;35362;-82
2022/04/03 10:36:26;;;;;;;;;;;;;;;9.94;45.28;98799.28;4452300;32;34274;-80
2022/04/03 10:39:03;;;;;;;;;;;;;;;8.35;47.49;98805.03;4458614;32;32902;-80
2022/04/03 10:41:31;;;;;;;;;;;;;;;8.03;49.11;98802.75;4457966;32;34125;-80
2022/04/03 10:44:18;;;;;;;;;;;;;;;8.12;47.42;98802.06;4448074;32;34512;-84
2022/04/03 10:47:01;;;;;;;;;;;;;;;8.44;45.98;98808.62;4461694;32;33527;-78
2022/04/03 10:49:32;;;;;;;;;;;;;;;8.35;47.26;98810.19;4455624;32;33065;-79
2022/04/03 10:52:23;;;;;;;;;;;;;;;8.86;45.80;98814.41;4452936;32;34883;-83
2022/04/03 10:54:51;;;;;;;;;;;;;;;9.09;46.43;98807.84;4461272;32;35231;-80
2022/04/03 10:57:35;;;;;;;;;;;;;;;9.50;45.86;98800.56;4449738;32;34759;-79
2022/04/03 11:00:12;;;;;;;;;;;;;;;9.38;46.81;98815.09;4449193;32;33317;-79
2022/04/03 11:02:40;;;;;;;;;;;;;;;9.42;45.41;98797.03;4459939;32;34532;-80
2022/04/03 11:05:22;;;;;;;;;;;;;;;9.43;46.00;98806.53;4444298;32;34105;-81
2022/04/03 11:07:50;;;;;;;;;;;;;;;9.00;46.44;98821.50;4465367;32;35290;-79
2022/04/03 11:10:40;;;;;;;;;;;;;;;9.35;46.64;98823.66;4462396;32;34088;-79
2022/04/03 11:13:07;;;;;;;;;;;;;;;8.27;46.94;98817.81;4457440;32;35120;-79
2022/04/03 11:15:49;;;;;;;;;;;;;;;9.29;46.75;98815.84;4451311;32;34379;-80
2022/04/03 11:18:37;;;;;;;;;;;;;;;9.29;44.87;98825.34;4453341;32;34306;-86
2022/04/03 11:21:23;;;;;;;;;;;;;;;9.79;44.21;98817.28;4456717;32;33228;-81
2022/04/03 11:24:10;;;;;;;;;;;;;;;10.05;40.34;98831.34;4456295;32;35083;-80
2022/04/03 11:26:38;;;;;;;;;;;;;;;9.95;40.79;98829.50;4448767;32;34948;-80
2022/04/03 11:29:06;;;;;;;;;;;;;;;9.73;43.07;98826.69;4457678;32;34908;-80
2022/04/03 11:31:33;;;;;;;;;;;;;;;9.78;43.84;98825.91;4442916;32;33491;-81
2022/04/03 11:34:01;;;;;;;;;;;;;;;9.52;44.49;98836.81;4443595;32;34218;-80
2022/04/03 11:36:29;;;;;;;;;;;;;;;9.77;46.78;98837.09;4455472;32;34020;-80
2022/04/03 11:38:58;;;;;;;;;;;;;;;9.66;45.15;98830.09;4445667;32;34924;-82
2022/04/03 11:41:27;;;;;;;;;;;;;;;9.70;43.28;98839.62;4445317;32;34190;-82
2022/04/03 11:44:00;;;;;;;;;;;;;;;9.27;42.99;98839.09;4459156;32;34213;-85
2022/04/03 11:46:27;;;;;;;;;;;;;;;8.90;44.07;98837.75;4459389;32;34380;-81
2022/04/03 11:48:55;;;;;;;;;;;;;;;9.54;42.52;98847.19;4445369;32;34199;-82
2022/04/03 11:51:22;;;;;;;;;;;;;;;9.85;42.50;98838.03;4455876;32;33802;-82
2022/04/03 11:53:55;;;;;;;;;;;;;;;9.99;42.10;98847.66;4461929;32;34060;-82
2022/04/03 11:56:23;;;;;;;;;;;;;;;10.09;41.62;98838.28;4460322;32;34397;-82
2022/04/03 11:58:53;;;;;;;;;;;;;;;9.60;42.19;98848.13;4462763;32;34197;-82
2022/04/03 12:01:27;;;;;;;;;;;;;;;9.29;42.05;98841.72;4457341;32;34345;-80
2022/04/03 12:04:12;;;;;;;;;;;;;;;9.61;42.75;98849.84;4443611;32;34761;-82
2022/04/03 12:06:49;;;;;;;;;;;;;;;9.62;42.93;98854.19;4458898;32;35238;-81
2022/04/03 12:09:24;;;;;;;;;;;;;;;8.62;43.53;98862.31;4459877;32;34965;-83
2022/04/03 12:11:53;;;;;;;;;;;;;;;9.66;40.42;98857.66;4458176;32;34167;-80
2022/04/03 12:14:21;;;;;;;;;;;;;;;9.29;41.37;98861.56;4460499;32;34930;-84
2022/04/03 12:16:54;;;;;;;;;;;;;;;8.83;43.63;98861.78;4457827;32;33590;-82
2022/04/03 12:19:21;;;;;;;;;;;;;;;9.10;42.43;98857.84;4460508;32;34201;-83
2022/04/03 12:21:54;;;;;;;;;;;;;;;9.29;41.47;98846.03;4456522;32;34135;-85
2022/04/03 12:24:29;;;;;;;;;;;;;;;10.04;38.72;98846.84;4444263;32;34477;-81
2022/04/03 12:27:05;;;;;;;;;;;;;;;8.78;42.38;98860.81;4464250;32;33986;-82
2022/04/03 12:29:35;;;;;;;;;;;;;;;8.50;42.24;98856.97;4460471;32;34202;-86
2022/04/03 12:32:05;;;;;;;;;;;;;;;8.76;42.05;98855.66;4447456;32;33065;-83
2022/04/03 12:34:42;;;;;;;;;;;;;;;9.01;42.07;98854.25;4445509;32;34267;-83
2022/04/03 12:37:10;;;;;;;;;;;;;;;8.76;43.24;98850.47;4462110;32;33992;-82
2022/04/03 12:39:49;;;;;;;;;;;;;;;9.49;39.60;98860.06;4460765;32;35184;-83
2022/04/03 12:42:20;;;;;;;;;;;;;;;8.43;41.31;98852.53;4462286;32;33759;-82
2022/04/03 12:44:47;;;;;;;;;;;;;;;8.78;40.43;98848.75;4461250;32;32275;-80
2022/04/03 12:47:15;;;;;;;;;;;;;;;9.92;38.99;98850.19;4462377;32;34580;-84
2022/04/03 12:50:02;;;;;;;;;;;;;;;9.97;37.55;98844.22;4456654;32;34018;-85
2022/04/03 12:52:46;;;;;;;;;;;;;;;9.88;38.82;98843.25;4461536;32;33028;-83
2022/04/03 12:55:26;;;;;;;;;;;;;;;10.36;38.32;98847.19;4448198;32;34888;-82
2022/04/03 13:00:53;;;;;;;;;;;;;;;9.57;39.82;98858.44;4438559;32;790152;-81
2022/04/03 13:03:33;;;;;;;;;;;;;;;10.57;38.15;98849.06;4450125;32;32752;-81
2022/04/03 13:06:00;;;;;;;;;;;;;;;9.82;38.94;98843.19;4461043;32;34321;-82
2022/04/03 13:08:39;;;;;;;;;;;;;;;9.85;38.52;98853.56;4466814;32;35053;-84